sensor_id;sensor_type;location;lat;lon;timestamp;pressure;altitude;pressure_sealevel;temperature;humidity
46782;BME280;32541;46.298;11.506;2022-09-12T00:01:38;89797.50;;;9.52;74.34
46782;BME280;32541;46.298;11.506;2022-09-12T00:04:04;89805.59;;;9.49;74.02
46782;BME280;32541;46.298;11.506;2022-09-12T00:06:32;89806.94;;;9.58;73.95
46782;BME280;32541;46.298;11.506;2022-09-12T00:09:03;89800.13;;;9.59;73.26
46782;BME280;32541;46.298;11.506;2022-09-12T00:11:29;89794.50;;;9.57;74.33
46782;BME280;32541;46.298;11.506;2022-09-12T00:13:57;89800.66;;;9.48;74.54
46782;BME280;32541;46.298;11.506;2022-09-12T00:16:24;89807.00;;;9.50;74.68
46782;BME280;32541;46.298;11.506;2022-09-12T00:18:50;89797.59;;;9.44;74.62
46782;BME280;32541;46.298;11.506;2022-09-12T00:21:17;89801.94;;;9.47;74.64
46782;BME280;32541;46.298;11.506;2022-09-12T00:23:43;89798.91;;;9.26;76.75
46782;BME280;32541;46.298;11.506;2022-09-12T00:26:09;89796.06;;;9.16;76.98
46782;BME280;32541;46.298;11.506;2022-09-12T00:28:36;89799.28;;;9.22;nan
46782;BME280;32541;46.298;11.506;2022-09-12T00:31:08;89789.69;;;9.31;75.21
46782;BME280;32541;46.298;11.506;2022-09-12T00:33:34;89790.31;;;9.39;75.08
46782;BME280;32541;46.298;11.506;2022-09-12T00:36:04;89786.28;;;9.40;75.26
46782;BME280;32541;46.298;11.506;2022-09-12T00:38:30;89794.19;;;9.36;74.87
46782;BME280;32541;46.298;11.506;2022-09-12T00:40:56;89789.53;;;9.29;75.11
46782;BME280;32541;46.298;11.506;2022-09-12T00:43:42;89791.84;;;9.32;74.71
46782;BME280;32541;46.298;11.506;2022-09-12T00:49:26;89794.38;;;9.38;73.99
46782;BME280;32541;46.298;11.506;2022-09-12T00:52:08;89793.16;;;9.31;73.83
46782;BME280;32541;46.298;11.506;2022-09-12T00:54:41;89796.31;;;9.28;74.76
46782;BME280;32541;46.298;11.506;2022-09-12T00:57:10;89794.13;;;9.26;75.30
46782;BME280;32541;46.298;11.506;2022-09-12T00:59:40;89788.06;;;9.28;75.40
46782;BME280;32541;46.298;11.506;2022-09-12T01:02:09;89781.06;;;9.17;75.16
46782;BME280;32541;46.298;11.506;2022-09-12T01:04:36;89776.47;;;9.20;75.58
46782;BME280;32541;46.298;11.506;2022-09-12T01:07:04;89775.00;;;9.19;75.98
46782;BME280;32541;46.298;11.506;2022-09-12T01:09:31;89786.13;;;9.21;75.83
46782;BME280;32541;46.298;11.506;2022-09-12T01:11:56;89773.00;;;9.19;75.75
46782;BME280;32541;46.298;11.506;2022-09-12T01:14:23;89768.31;;;9.29;75.41
46782;BME280;32541;46.298;11.506;2022-09-12T01:16:49;89767.19;;;9.15;76.27
46782;BME280;32541;46.298;11.506;2022-09-12T01:19:54;89756.19;;;9.15;75.61
46782;BME280;32541;46.298;11.506;2022-09-12T01:26:10;89751.75;;;9.37;75.31
46782;BME280;32541;46.298;11.506;2022-09-12T01:31:31;89757.16;;;9.27;75.15
46782;BME280;32541;46.298;11.506;2022-09-12T01:36:38;89760.72;;;9.03;77.06
46782;BME280;32541;46.298;11.506;2022-09-12T01:39:13;89766.22;;;9.03;77.17
46782;BME280;32541;46.298;11.506;2022-09-12T01:41:57;89754.03;;;9.14;76.48
46782;BME280;32541;46.298;11.506;2022-09-12T01:44:38;89753.63;;;9.17;76.69
46782;BME280;32541;46.298;11.506;2022-09-12T01:47:14;89743.63;;;9.12;76.77
46782;BME280;32541;46.298;11.506;2022-09-12T01:49:59;89751.78;;;9.03;76.84
46782;BME280;32541;46.298;11.506;2022-09-12T01:55:08;89748.72;;;8.99;77.06
46782;BME280;32541;46.298;11.506;2022-09-12T01:57:45;89755.00;;;8.91;78.46
46782;BME280;32541;46.298;11.506;2022-09-12T02:00:14;89744.84;;;8.84;78.55
46782;BME280;32541;46.298;11.506;2022-09-12T02:05:32;89750.41;;;8.77;78.39
46782;BME280;32541;46.298;11.506;2022-09-12T02:08:12;89751.28;;;8.79;77.81
46782;BME280;32541;46.298;11.506;2022-09-12T02:11:02;89746.03;;;8.57;78.16
46782;BME280;32541;46.298;11.506;2022-09-12T02:16:06;89743.09;;;8.37;80.35
46782;BME280;32541;46.298;11.506;2022-09-12T02:18:37;89740.28;;;8.45;80.16
46782;BME280;32541;46.298;11.506;2022-09-12T02:21:04;89740.38;;;8.55;79.71
46782;BME280;32541;46.298;11.506;2022-09-12T02:23:31;89731.53;;;8.64;78.60
46782;BME280;32541;46.298;11.506;2022-09-12T02:26:08;89724.00;;;8.64;78.14
46782;BME280;32541;46.298;11.506;2022-09-12T02:28:38;89725.88;;;8.62;77.82
46782;BME280;32541;46.298;11.506;2022-09-12T02:36:29;89722.34;;;8.52;78.15
46782;BME280;32541;46.298;11.506;2022-09-12T02:38:57;89722.09;;;8.57;78.12
46782;BME280;32541;46.298;11.506;2022-09-12T02:41:23;89726.19;;;8.49;78.43
46782;BME280;32541;46.298;11.506;2022-09-12T02:43:50;89711.59;;;8.46;77.99
46782;BME280;32541;46.298;11.506;2022-09-12T02:46:30;89710.88;;;8.46;77.42
46782;BME280;32541;46.298;11.506;2022-09-12T02:48:57;89718.38;;;8.45;77.67
46782;BME280;32541;46.298;11.506;2022-09-12T02:51:22;89711.59;;;8.46;77.96
46782;BME280;32541;46.298;11.506;2022-09-12T02:53:49;89712.09;;;8.52;77.49
46782;BME280;32541;46.298;11.506;2022-09-12T02:56:26;89713.38;;;8.51;77.46
46782;BME280;32541;46.298;11.506;2022-09-12T02:58:53;89709.81;;;8.41;77.68
46782;BME280;32541;46.298;11.506;2022-09-12T03:09:46;89705.53;;;8.30;78.12
46782;BME280;32541;46.298;11.506;2022-09-12T03:12:32;89706.81;;;8.29;78.09
46782;BME280;32541;46.298;11.506;2022-09-12T03:15:25;89711.94;;;8.25;78.60
46782;BME280;32541;46.298;11.506;2022-09-12T03:18:05;89711.78;;;8.23;78.33
46782;BME280;32541;46.298;11.506;2022-09-12T03:23:10;89706.09;;;8.29;77.63
46782;BME280;32541;46.298;11.506;2022-09-12T03:25:47;89705.28;;;8.36;77.55
46782;BME280;32541;46.298;11.506;2022-09-12T03:28:15;89700.78;;;8.31;77.72
46782;BME280;32541;46.298;11.506;2022-09-12T03:30:43;89713.75;;;8.30;77.65
46782;BME280;32541;46.298;11.506;2022-09-12T03:33:14;89717.97;;;8.24;78.71
46782;BME280;32541;46.298;11.506;2022-09-12T03:35:41;89726.78;;;8.22;78.60
46782;BME280;32541;46.298;11.506;2022-09-12T03:38:07;89722.31;;;8.10;77.53
46782;BME280;32541;46.298;11.506;2022-09-12T03:40:33;89725.94;;;8.12;77.73
46782;BME280;32541;46.298;11.506;2022-09-12T03:42:59;89727.09;;;8.02;78.83
46782;BME280;32541;46.298;11.506;2022-09-12T03:45:24;89725.00;;;7.93;79.80
46782;BME280;32541;46.298;11.506;2022-09-12T03:47:50;89726.38;;;8.01;79.20
46782;BME280;32541;46.298;11.506;2022-09-12T03:50:15;89729.66;;;8.00;78.68
46782;BME280;32541;46.298;11.506;2022-09-12T03:52:40;89726.63;;;7.96;79.39
46782;BME280;32541;46.298;11.506;2022-09-12T03:55:06;89733.16;;;8.00;79.46
46782;BME280;32541;46.298;11.506;2022-09-12T03:57:32;89733.38;;;7.95;78.45
46782;BME280;32541;46.298;11.506;2022-09-12T03:59:57;89732.78;;;7.96;79.25
46782;BME280;32541;46.298;11.506;2022-09-12T04:02:22;89726.19;;;7.99;78.80
46782;BME280;32541;46.298;11.506;2022-09-12T04:04:48;89722.41;;;7.95;79.10
46782;BME280;32541;46.298;11.506;2022-09-12T04:07:14;89731.91;;;7.94;78.63
46782;BME280;32541;46.298;11.506;2022-09-12T04:09:40;89731.38;;;7.95;79.33
46782;BME280;32541;46.298;11.506;2022-09-12T04:12:06;89731.75;;;7.92;79.49
46782;BME280;32541;46.298;11.506;2022-09-12T04:14:32;89736.16;;;7.87;79.78
46782;BME280;32541;46.298;11.506;2022-09-12T04:16:58;89732.13;;;7.88;79.56
46782;BME280;32541;46.298;11.506;2022-09-12T04:19:24;89727.22;;;7.87;78.93
46782;BME280;32541;46.298;11.506;2022-09-12T04:21:50;89732.34;;;7.82;79.46
46782;BME280;32541;46.298;11.506;2022-09-12T04:24:15;89731.59;;;7.90;78.57
46782;BME280;32541;46.298;11.506;2022-09-12T04:26:41;89732.13;;;7.88;81.14
46782;BME280;32541;46.298;11.506;2022-09-12T04:29:06;89729.47;;;7.80;81.14
46782;BME280;32541;46.298;11.506;2022-09-12T04:31:32;89731.97;;;7.86;80.01
46782;BME280;32541;46.298;11.506;2022-09-12T04:33:59;89736.88;;;7.88;79.56
46782;BME280;32541;46.298;11.506;2022-09-12T04:36:26;89726.88;;;7.82;80.01
46782;BME280;32541;46.298;11.506;2022-09-12T04:38:52;89731.09;;;7.83;79.30
46782;BME280;32541;46.298;11.506;2022-09-12T04:41:27;89730.06;;;7.71;80.20
46782;BME280;32541;46.298;11.506;2022-09-12T04:43:54;89733.69;;;7.74;80.63
46782;BME280;32541;46.298;11.506;2022-09-12T04:46:22;89733.72;;;7.66;80.47
46782;BME280;32541;46.298;11.506;2022-09-12T04:48:48;89732.63;;;7.69;80.86
46782;BME280;32541;46.298;11.506;2022-09-12T04:51:24;89732.06;;;7.71;80.10
46782;BME280;32541;46.298;11.506;2022-09-12T04:53:53;89727.34;;;7.71;80.38
46782;BME280;32541;46.298;11.506;2022-09-12T04:56:19;89721.88;;;7.64;80.84
46782;BME280;32541;46.298;11.506;2022-09-12T04:58:46;89726.50;;;7.86;80.55
46782;BME280;32541;46.298;11.506;2022-09-12T05:01:13;89728.38;;;7.76;79.91
46782;BME280;32541;46.298;11.506;2022-09-12T05:03:40;89727.66;;;7.75;81.83
46782;BME280;32541;46.298;11.506;2022-09-12T05:06:15;89734.03;;;7.78;81.26
46782;BME280;32541;46.298;11.506;2022-09-12T05:08:41;89730.56;;;7.77;80.58
46782;BME280;32541;46.298;11.506;2022-09-12T05:11:10;89731.13;;;7.76;80.89
46782;BME280;32541;46.298;11.506;2022-09-12T05:13:36;89733.34;;;7.70;82.24
46782;BME280;32541;46.298;11.506;2022-09-12T05:16:03;89732.22;;;7.73;81.23
46782;BME280;32541;46.298;11.506;2022-09-12T05:18:33;89740.78;;;7.77;82.91
46782;BME280;32541;46.298;11.506;2022-09-12T05:21:00;89725.53;;;7.66;81.69
46782;BME280;32541;46.298;11.506;2022-09-12T05:23:27;89732.97;;;7.73;81.48
46782;BME280;32541;46.298;11.506;2022-09-12T05:25:54;89742.28;;;7.70;81.48
46782;BME280;32541;46.298;11.506;2022-09-12T05:28:24;89744.75;;;7.51;82.97
46782;BME280;32541;46.298;11.506;2022-09-12T05:31:10;89753.84;;;7.61;81.80
46782;BME280;32541;46.298;11.506;2022-09-12T05:33:37;89746.19;;;7.60;82.32
46782;BME280;32541;46.298;11.506;2022-09-12T05:36:04;89747.13;;;7.55;82.67
46782;BME280;32541;46.298;11.506;2022-09-12T05:38:30;89745.47;;;7.59;82.21
46782;BME280;32541;46.298;11.506;2022-09-12T05:41:04;89749.63;;;7.60;82.07
46782;BME280;32541;46.298;11.506;2022-09-12T05:43:33;89749.31;;;7.56;82.56
46782;BME280;32541;46.298;11.506;2022-09-12T05:46:03;89744.72;;;7.59;82.50
46782;BME280;32541;46.298;11.506;2022-09-12T05:48:29;89759.09;;;7.67;81.71
46782;BME280;32541;46.298;11.506;2022-09-12T05:51:05;89751.44;;;7.65;82.52
46782;BME280;32541;46.298;11.506;2022-09-12T05:53:34;89758.19;;;7.64;82.99
46782;BME280;32541;46.298;11.506;2022-09-12T05:56:06;89759.81;;;7.67;82.56
46782;BME280;32541;46.298;11.506;2022-09-12T05:58:33;89757.59;;;7.73;82.91
46782;BME280;32541;46.298;11.506;2022-09-12T06:01:09;89765.81;;;7.73;82.75
46782;BME280;32541;46.298;11.506;2022-09-12T06:03:39;89758.63;;;7.86;82.95
46782;BME280;32541;46.298;11.506;2022-09-12T06:06:06;89769.94;;;7.82;82.79
46782;BME280;32541;46.298;11.506;2022-09-12T06:08:33;89762.84;;;7.79;82.68
46782;BME280;32541;46.298;11.506;2022-09-12T06:11:03;89767.00;;;7.88;82.28
46782;BME280;32541;46.298;11.506;2022-09-12T06:13:31;89770.34;;;7.78;81.71
46782;BME280;32541;46.298;11.506;2022-09-12T06:16:02;89767.59;;;7.78;82.88
46782;BME280;32541;46.298;11.506;2022-09-12T06:18:28;89758.09;;;7.79;82.62
46782;BME280;32541;46.298;11.506;2022-09-12T06:20:53;89759.06;;;7.74;83.43
46782;BME280;32541;46.298;11.506;2022-09-12T06:23:18;89761.97;;;7.76;83.29
46782;BME280;32541;46.298;11.506;2022-09-12T06:25:47;89764.69;;;7.76;83.14
46782;BME280;32541;46.298;11.506;2022-09-12T06:28:16;89757.50;;;7.89;82.98
46782;BME280;32541;46.298;11.506;2022-09-12T06:30:41;89756.00;;;7.95;83.08
46782;BME280;32541;46.298;11.506;2022-09-12T06:33:07;89760.19;;;7.96;82.57
46782;BME280;32541;46.298;11.506;2022-09-12T06:35:36;89754.00;;;7.96;82.84
46782;BME280;32541;46.298;11.506;2022-09-12T06:38:03;89755.31;;;8.12;82.98
46782;BME280;32541;46.298;11.506;2022-09-12T06:40:28;89755.09;;;8.17;82.89
46782;BME280;32541;46.298;11.506;2022-09-12T06:42:54;89751.53;;;8.32;82.72
46782;BME280;32541;46.298;11.506;2022-09-12T06:45:19;89740.19;;;8.35;82.75
46782;BME280;32541;46.298;11.506;2022-09-12T06:47:45;89747.06;;;8.44;81.92
46782;BME280;32541;46.298;11.506;2022-09-12T06:50:10;89751.75;;;8.51;82.05
46782;BME280;32541;46.298;11.506;2022-09-12T06:52:36;89748.53;;;8.62;81.60
46782;BME280;32541;46.298;11.506;2022-09-12T06:55:01;89751.03;;;8.68;81.99
46782;BME280;32541;46.298;11.506;2022-09-12T06:57:27;89748.63;;;8.89;82.10
46782;BME280;32541;46.298;11.506;2022-09-12T06:59:54;89748.56;;;9.14;82.75
46782;BME280;32541;46.298;11.506;2022-09-12T07:02:20;89750.22;;;9.43;82.48
46782;BME280;32541;46.298;11.506;2022-09-12T07:04:45;89740.38;;;9.94;83.11
46782;BME280;32541;46.298;11.506;2022-09-12T07:07:11;89745.66;;;10.36;81.08
46782;BME280;32541;46.298;11.506;2022-09-12T07:09:36;89746.03;;;10.88;79.81
46782;BME280;32541;46.298;11.506;2022-09-12T07:12:02;89746.34;;;11.49;76.77
46782;BME280;32541;46.298;11.506;2022-09-12T07:14:29;89741.50;;;12.07;73.21
46782;BME280;32541;46.298;11.506;2022-09-12T07:16:54;89747.97;;;12.62;69.93
46782;BME280;32541;46.298;11.506;2022-09-12T07:19:20;89751.44;;;12.93;69.07
46782;BME280;32541;46.298;11.506;2022-09-12T07:21:45;89750.63;;;13.33;67.61
46782;BME280;32541;46.298;11.506;2022-09-12T07:24:11;89746.03;;;13.80;66.68
46782;BME280;32541;46.298;11.506;2022-09-12T07:26:37;89734.59;;;14.18;64.32
46782;BME280;32541;46.298;11.506;2022-09-12T07:29:04;89736.94;;;14.57;62.09
46782;BME280;32541;46.298;11.506;2022-09-12T07:31:29;89732.97;;;14.94;61.11
46782;BME280;32541;46.298;11.506;2022-09-12T07:33:55;89737.25;;;15.32;59.62
46782;BME280;32541;46.298;11.506;2022-09-12T07:36:22;89734.56;;;15.57;58.99
46782;BME280;32541;46.298;11.506;2022-09-12T07:38:53;89723.63;;;15.85;57.31
46782;BME280;32541;46.298;11.506;2022-09-12T07:41:21;89729.84;;;15.97;57.18
46782;BME280;32541;46.298;11.506;2022-09-12T07:43:51;89728.28;;;16.19;56.60
46782;BME280;32541;46.298;11.506;2022-09-12T07:46:16;89726.91;;;16.45;55.74
46782;BME280;32541;46.298;11.506;2022-09-12T07:48:42;89722.97;;;16.76;54.98
46782;BME280;32541;46.298;11.506;2022-09-12T07:51:10;89721.06;;;17.19;53.74
46782;BME280;32541;46.298;11.506;2022-09-12T07:53:40;89729.81;;;17.54;52.26
46782;BME280;32541;46.298;11.506;2022-09-12T07:56:07;89729.16;;;17.69;50.31
46782;BME280;32541;46.298;11.506;2022-09-12T07:58:35;89724.47;;;17.88;49.56
46782;BME280;32541;46.298;11.506;2022-09-12T08:01:15;89719.75;;;17.76;50.43
46782;BME280;32541;46.298;11.506;2022-09-12T08:03:42;89725.09;;;17.16;51.96
46782;BME280;32541;46.298;11.506;2022-09-12T08:06:16;89726.41;;;17.15;53.98
46782;BME280;32541;46.298;11.506;2022-09-12T08:08:45;89722.31;;;17.16;53.82
46782;BME280;32541;46.298;11.506;2022-09-12T08:11:13;89718.97;;;17.47;52.60
46782;BME280;32541;46.298;11.506;2022-09-12T08:13:40;89714.19;;;17.90;52.35
46782;BME280;32541;46.298;11.506;2022-09-12T08:16:10;89713.25;;;17.86;51.01
46782;BME280;32541;46.298;11.506;2022-09-12T08:18:36;89717.41;;;18.14;52.27
46782;BME280;32541;46.298;11.506;2022-09-12T08:21:04;89718.06;;;17.99;51.38
46782;BME280;32541;46.298;11.506;2022-09-12T08:23:31;89719.25;;;18.39;49.67
46782;BME280;32541;46.298;11.506;2022-09-12T08:25:58;89712.41;;;18.26;49.07
46782;BME280;32541;46.298;11.506;2022-09-12T08:28:25;89707.19;;;18.63;48.16
46782;BME280;32541;46.298;11.506;2022-09-12T08:30:52;89711.97;;;18.02;49.18
46782;BME280;32541;46.298;11.506;2022-09-12T08:33:19;89709.22;;;17.32;50.73
46782;BME280;32541;46.298;11.506;2022-09-12T08:35:44;89707.97;;;17.92;49.74
46782;BME280;32541;46.298;11.506;2022-09-12T08:38:10;89707.69;;;18.15;49.06
46782;BME280;32541;46.298;11.506;2022-09-12T08:40:56;89699.84;;;17.96;48.88
46782;BME280;32541;46.298;11.506;2022-09-12T08:43:36;89698.06;;;18.47;50.37
46782;BME280;32541;46.298;11.506;2022-09-12T08:46:12;89694.78;;;18.98;47.14
46782;BME280;32541;46.298;11.506;2022-09-12T08:48:41;89692.72;;;18.98;48.78
46782;BME280;32541;46.298;11.506;2022-09-12T08:51:12;89689.19;;;18.98;48.53
46782;BME280;32541;46.298;11.506;2022-09-12T08:53:39;89694.97;;;19.02;47.77
46782;BME280;32541;46.298;11.506;2022-09-12T08:56:07;89694.03;;;19.44;46.26
46782;BME280;32541;46.298;11.506;2022-09-12T08:58:39;89688.72;;;19.50;44.72
46782;BME280;32541;46.298;11.506;2022-09-12T09:01:28;89689.53;;;19.70;48.37
46782;BME280;32541;46.298;11.506;2022-09-12T09:04:56;89686.44;;;18.82;45.92
46782;BME280;32541;46.298;11.506;2022-09-12T09:07:05;89682.81;;;18.95;48.04
46782;BME280;32541;46.298;11.506;2022-09-12T09:20:29;89675.84;;;17.89;48.67
46782;BME280;32541;46.298;11.506;2022-09-12T09:23:06;89670.63;;;18.10;48.97
46782;BME280;32541;46.298;11.506;2022-09-12T09:25:47;89666.59;;;18.13;49.01
46782;BME280;32541;46.298;11.506;2022-09-12T09:28:24;89662.50;;;18.01;49.24
46782;BME280;32541;46.298;11.506;2022-09-12T09:30:52;89666.66;;;18.76;47.32
46782;BME280;32541;46.298;11.506;2022-09-12T09:33:24;89665.53;;;19.30;47.69
46782;BME280;32541;46.298;11.506;2022-09-12T09:36:06;89650.13;;;19.29;45.92
46782;BME280;32541;46.298;11.506;2022-09-12T09:38:47;89650.25;;;19.15;48.52
46782;BME280;32541;46.298;11.506;2022-09-12T09:41:44;89645.81;;;18.61;47.04
46782;BME280;32541;46.298;11.506;2022-09-12T09:44:14;89645.75;;;18.30;47.41
46782;BME280;32541;46.298;11.506;2022-09-12T09:46:40;89648.75;;;17.89;49.13
46782;BME280;32541;46.298;11.506;2022-09-12T09:49:06;89643.84;;;18.03;49.50
46782;BME280;32541;46.298;11.506;2022-09-12T09:51:38;89648.00;;;18.18;47.45
46782;BME280;32541;46.298;11.506;2022-09-12T09:54:20;89637.16;;;18.86;46.48
46782;BME280;32541;46.298;11.506;2022-09-12T09:56:48;89637.28;;;18.57;49.01
46782;BME280;32541;46.298;11.506;2022-09-12T09:59:29;89639.19;;;19.17;47.57
46782;BME280;32541;46.298;11.506;2022-09-12T10:04:35;89633.69;;;18.70;47.90
46782;BME280;32541;46.298;11.506;2022-09-12T10:07:04;89637.91;;;18.71;50.06
46782;BME280;32541;46.298;11.506;2022-09-12T10:09:34;89636.81;;;18.63;48.24
46782;BME280;32541;46.298;11.506;2022-09-12T10:12:19;89625.81;;;19.47;47.74
46782;BME280;32541;46.298;11.506;2022-09-12T10:14:56;89636.19;;;19.29;47.78
46782;BME280;32541;46.298;11.506;2022-09-12T10:17:29;89634.31;;;18.69;48.22
46782;BME280;32541;46.298;11.506;2022-09-12T10:19:56;89635.00;;;18.38;52.53
46782;BME280;32541;46.298;11.506;2022-09-12T10:22:25;89632.81;;;19.15;49.08
46782;BME280;32541;46.298;11.506;2022-09-12T10:25:00;89620.34;;;19.84;48.43
46782;BME280;32541;46.298;11.506;2022-09-12T10:27:32;89621.50;;;20.50;47.03
46782;BME280;32541;46.298;11.506;2022-09-12T10:32:40;89617.31;;;19.78;45.27
46782;BME280;32541;46.298;11.506;2022-09-12T10:35:19;89614.19;;;20.23;48.29
46782;BME280;32541;46.298;11.506;2022-09-12T10:37:53;89626.09;;;20.98;47.92
46782;BME280;32541;46.298;11.506;2022-09-12T10:42:56;89614.97;;;21.40;44.24
46782;BME280;32541;46.298;11.506;2022-09-12T10:45:33;89622.19;;;21.47;43.50
46782;BME280;32541;46.298;11.506;2022-09-12T10:48:27;89626.22;;;21.02;45.56
46782;BME280;32541;46.298;11.506;2022-09-12T10:50:53;89619.69;;;21.35;44.65
46782;BME280;32541;46.298;11.506;2022-09-12T10:53:38;89619.06;;;21.37;46.63
46782;BME280;32541;46.298;11.506;2022-09-12T10:56:15;89611.00;;;21.88;45.49
46782;BME280;32541;46.298;11.506;2022-09-12T11:04:28;89603.75;;;22.48;44.53
46782;BME280;32541;46.298;11.506;2022-09-12T11:26:28;89609.16;;;21.34;44.11
46782;BME280;32541;46.298;11.506;2022-09-12T11:37:48;89608.88;;;20.49;45.65
46782;BME280;32541;46.298;11.506;2022-09-12T11:40:28;89596.38;;;20.70;44.74
46782;BME280;32541;46.298;11.506;2022-09-12T11:43:10;89595.41;;;21.00;44.80
46782;BME280;32541;46.298;11.506;2022-09-12T11:45:44;89583.63;;;21.43;45.82
46782;BME280;32541;46.298;11.506;2022-09-12T11:48:37;89580.94;;;21.26;44.16
46782;BME280;32541;46.298;11.506;2022-09-12T11:51:06;89578.28;;;21.51;43.39
46782;BME280;32541;46.298;11.506;2022-09-12T11:53:37;89583.72;;;21.26;43.83
46782;BME280;32541;46.298;11.506;2022-09-12T11:56:12;89595.53;;;20.85;45.43
46782;BME280;32541;46.298;11.506;2022-09-12T11:58:39;89586.16;;;21.16;48.68
46782;BME280;32541;46.298;11.506;2022-09-12T12:01:14;89580.75;;;21.63;44.76
46782;BME280;32541;46.298;11.506;2022-09-12T12:03:44;89582.69;;;21.37;44.00
46782;BME280;32541;46.298;11.506;2022-09-12T12:08:40;89580.69;;;21.00;44.97
46782;BME280;32541;46.298;11.506;2022-09-12T12:11:07;89572.28;;;20.41;45.10
46782;BME280;32541;46.298;11.506;2022-09-12T12:13:40;89578.69;;;20.83;46.13
46782;BME280;32541;46.298;11.506;2022-09-12T12:18:57;89569.38;;;21.57;46.45
46782;BME280;32541;46.298;11.506;2022-09-12T12:21:32;89574.97;;;21.57;44.18
46782;BME280;32541;46.298;11.506;2022-09-12T12:48:10;89541.50;;;22.52;44.85
46782;BME280;32541;46.298;11.506;2022-09-12T12:50:39;89536.63;;;22.76;44.35
46782;BME280;32541;46.298;11.506;2022-09-12T12:58:31;89539.31;;;21.79;45.14
46782;BME280;32541;46.298;11.506;2022-09-12T13:01:17;89539.69;;;21.48;45.43
46782;BME280;32541;46.298;11.506;2022-09-12T13:03:46;89535.72;;;21.55;45.88
46782;BME280;32541;46.298;11.506;2022-09-12T13:09:02;89531.44;;;22.19;45.41
46782;BME280;32541;46.298;11.506;2022-09-12T13:11:34;89542.72;;;22.45;45.86
46782;BME280;32541;46.298;11.506;2022-09-12T13:14:34;89529.03;;;22.57;45.29
46782;BME280;32541;46.298;11.506;2022-09-12T13:17:03;89536.59;;;22.27;45.09
46782;BME280;32541;46.298;11.506;2022-09-12T13:19:32;89537.34;;;22.53;46.17
46782;BME280;32541;46.298;11.506;2022-09-12T13:22:06;89524.56;;;22.48;46.24
46782;BME280;32541;46.298;11.506;2022-09-12T13:24:33;89522.31;;;22.66;47.39
46782;BME280;32541;46.298;11.506;2022-09-12T13:26:59;89514.31;;;22.80;45.42
46782;BME280;32541;46.298;11.506;2022-09-12T13:29:26;89520.09;;;22.86;44.67
46782;BME280;32541;46.298;11.506;2022-09-12T13:31:57;89527.59;;;21.63;45.59
46782;BME280;32541;46.298;11.506;2022-09-12T13:34:31;89517.09;;;21.42;46.18
46782;BME280;32541;46.298;11.506;2022-09-12T13:42:40;89523.69;;;21.72;46.49
46782;BME280;32541;46.298;11.506;2022-09-12T13:47:38;89524.78;;;21.41;47.80
46782;BME280;32541;46.298;11.506;2022-09-12T13:50:06;89510.59;;;21.79;47.98
46782;BME280;32541;46.298;11.506;2022-09-12T13:52:34;89512.09;;;21.82;46.61
46782;BME280;32541;46.298;11.506;2022-09-12T13:55:07;89511.63;;;21.89;46.02
46782;BME280;32541;46.298;11.506;2022-09-12T13:57:38;89501.56;;;22.28;48.55
46782;BME280;32541;46.298;11.506;2022-09-12T14:00:15;89496.06;;;22.55;46.52
46782;BME280;32541;46.298;11.506;2022-09-12T14:02:44;89501.72;;;22.81;47.41
46782;BME280;32541;46.298;11.506;2022-09-12T14:05:19;89502.41;;;23.07;45.51
46782;BME280;32541;46.298;11.506;2022-09-12T14:08:00;89501.53;;;22.75;45.41
46782;BME280;32541;46.298;11.506;2022-09-12T14:10:32;89489.84;;;22.83;45.42
46782;BME280;32541;46.298;11.506;2022-09-12T14:13:03;89494.28;;;22.92;47.42
46782;BME280;32541;46.298;11.506;2022-09-12T14:15:31;89498.69;;;22.73;46.68
46782;BME280;32541;46.298;11.506;2022-09-12T14:18:00;89494.38;;;22.96;45.80
46782;BME280;32541;46.298;11.506;2022-09-12T14:20:27;89497.53;;;22.82;47.07
46782;BME280;32541;46.298;11.506;2022-09-12T14:23:01;89490.94;;;22.97;46.04
46782;BME280;32541;46.298;11.506;2022-09-12T14:25:33;89479.03;;;22.71;45.84
46782;BME280;32541;46.298;11.506;2022-09-12T14:28:01;89497.19;;;22.70;47.48
46782;BME280;32541;46.298;11.506;2022-09-12T14:30:28;89492.41;;;23.00;46.48
46782;BME280;32541;46.298;11.506;2022-09-12T14:35:35;89488.25;;;22.76;47.31
46782;BME280;32541;46.298;11.506;2022-09-12T14:38:17;89495.03;;;22.19;47.98
46782;BME280;32541;46.298;11.506;2022-09-12T14:41:09;89495.56;;;22.13;46.64
46782;BME280;32541;46.298;11.506;2022-09-12T14:43:41;89479.72;;;21.77;49.44
46782;BME280;32541;46.298;11.506;2022-09-12T14:46:18;89487.38;;;21.98;47.57
46782;BME280;32541;46.298;11.506;2022-09-12T14:52:24;89478.91;;;21.72;49.20
46782;BME280;32541;46.298;11.506;2022-09-12T14:55:26;89488.88;;;21.34;48.90
46782;BME280;32541;46.298;11.506;2022-09-12T14:58:14;89477.81;;;21.59;50.44
46782;BME280;32541;46.298;11.506;2022-09-12T15:03:35;89481.69;;;21.72;48.91
46782;BME280;32541;46.298;11.506;2022-09-12T15:06:03;89482.47;;;21.96;49.01
46782;BME280;32541;46.298;11.506;2022-09-12T15:08:30;89480.38;;;22.21;48.32
46782;BME280;32541;46.298;11.506;2022-09-12T15:10:57;89475.38;;;22.17;47.04
46782;BME280;32541;46.298;11.506;2022-09-12T15:13:25;89481.25;;;22.03;49.64
46782;BME280;32541;46.298;11.506;2022-09-12T15:15:54;89475.41;;;22.19;49.78
46782;BME280;32541;46.298;11.506;2022-09-12T15:18:20;89483.09;;;22.19;49.16
46782;BME280;32541;46.298;11.506;2022-09-12T15:20:51;89487.09;;;22.35;47.58
46782;BME280;32541;46.298;11.506;2022-09-12T15:25:59;89481.00;;;22.43;48.20
46782;BME280;32541;46.298;11.506;2022-09-12T15:28:24;89482.47;;;22.46;48.04
46782;BME280;32541;46.298;11.506;2022-09-12T15:30:52;89477.31;;;22.36;48.05
46782;BME280;32541;46.298;11.506;2022-09-12T15:33:20;89476.34;;;21.80;49.55
46782;BME280;32541;46.298;11.506;2022-09-12T15:35:47;89476.91;;;21.98;50.23
46782;BME280;32541;46.298;11.506;2022-09-12T15:38:13;89481.94;;;22.02;49.68
46782;BME280;32541;46.298;11.506;2022-09-12T15:40:38;89486.94;;;22.05;48.51